イカルイト の空港の天気 - METARとTAF

イカルイト空港 ( CYFB / YFB ) - カナダ ヌナブト準州イカルイト
飛行場実況気象(Metar)
観測時間10/16 03:00 EDT (10/16 07:00 UTC)
風向・風速東 6m/s
視程10km以上
天気現象
全天の8割程度の雲 雲底高度 880m
全天を覆う雲 雲底高度 2320m
気温1℃
湿度69%
気圧1010.8hPa
METARCYFB 160700Z 09011KT 15SM BKN029 OVC076 01/M04 A2984 RMK SC6AC2 SLP108
過去の天気等 Google飛行場航空写真 Wunderground天気予報

過去48時間のMETAR

飛行場予報(TAF)
発表時間: 10/16 01:41 EDT (10/16 05:41 UTC)
予報対象時間: 16日2時 EDT ~ 17日2時 EDT
風向・風速東 4m/s
視程10km以上
全天の4割程度の雲 雲底高度 610m
全天を覆う雲 雲底高度 2130m
16日2時 EDT ~ 16日11時 EDT に一時的に
視程6440m
天気現象弱い雪 もや
全天の8割程度の雲 雲底高度 610m
全天を覆う雲 雲底高度 1220m
16日3時 EDT ~ 16日5時 EDT に徐々に
風向・風速東 3m/s
16日11時 EDT から
風向・風速東 4m/s
視程10km以上
全天の4割程度の雲 雲底高度 370m
全天を覆う雲 雲底高度 910m
16日11時 EDT ~ 16日20時 EDT に一時的に
視程4830m
天気現象弱い雪 もや
全天の4割程度の雲 雲底高度 240m
全天を覆う雲 雲底高度 370m
16日15時 EDT ~ 16日17時 EDT に徐々に
風向・風速不定 2m/s
16日20時 EDT から
風向・風速北北西 3m/s
視程10km以上
全天の4割程度の雲 雲底高度 610m
全天の8割程度の雲 雲底高度 1220m
16日20時 EDT ~ 17日2時 EDT に一時的に
視程8050m
天気現象弱い雪 もや
全天の8割程度の雲 雲底高度 610m
全天を覆う雲 雲底高度 910m
TAF CYFB 160541Z 1606/1706 10008KT P6SM SCT020 OVC070
TEMPO 1606/1615 4SM -SN BR BKN020 OVC040
BECMG 1607/1609 08006KT
FM161500 10008KT P6SM SCT012 OVC030
TEMPO 1615/1624 3SM -SN BR SCT008 OVC012
BECMG 1619/1621 VRB03KT
FM170000 33005KT P6SM SCT020 BKN040
TEMPO 1700/1706 5SM -SN BR BKN020 OVC030 RMK NXT FCST BY 161200Z